PWSweather.com
Personal Weather Stations
Station Observations
KIDNAMPA57
Canyon County Idaho, Nampa, ID 83687

Canyon County IdahoNampa, ID 83687

Lat: 43.587235, Lon: -116.49831979999999

Elevation: 2615

Station Type: Davis Vantage Pro 2

www.rockinglweather.com

High Low Average
Temperature 89.8°F32.1°C 62.8°F17.1°C 76.1°F24.5°C
Dew Point 53.7°F12.1°C 35.7°F2.1°C 41.5°F5.3°C
Winds 11.0 mph 17.7 kmh Calm Calm 3.0 mph SW4.8 kmh SW
Wind Gusts 15.0 mph24.1 kmh -- 7.0 mph11.3 kmh
Humidity 57% 15% 31%
Pressure 29.95 in1014.2 mb 29.79 in1008.8 mb -
Precipitation 0.00 in0.0 mm - -
Hour Temp Dew Point Humidity Winds Wind Gusts Pressure Precip Precip Rate Daily Precip Total
12:00 AM 70.0°F21.1°C 53.1°F11.7°C 55% Calm Calm -- 29.79 in1008.8 mb 0.00 in0.0 mm 0.00 in0.0 mm 0.00 in0.0 mm
12:05 AM 69.8°F21.0°C 52.9°F11.6°C 55% Calm Calm -- 29.80 in1009.1 mb 0.00 in0.0 mm 0.00 in0.0 mm 0.00 in0.0 mm
12:10 AM 69.6°F20.9°C 53.7°F12.1°C 57% Calm Calm 1.0 mph1.6 kmh 29.80 in1009.1 mb 0.00 in0.0 mm 0.00 in0.0 mm 0.00 in0.0 mm
12:15 AM 69.2°F20.7°C 53.3°F11.8°C 57% Calm Calm 1.0 mph1.6 kmh 29.80 in1009.1 mb 0.00 in0.0 mm 0.00 in0.0 mm 0.00 in0.0 mm
12:20 AM 69.1°F20.6°C 52.8°F11.6°C 56% 2.0 mph SW3.2 kmh SW 2.0 mph3.2 kmh 29.80 in1009.1 mb 0.00 in0.0 mm 0.00 in0.0 mm 0.00 in0.0 mm
12:25 AM 69.3°F20.7°C 51.5°F10.8°C 53% 1.0 mph WSW1.6 kmh WSW 4.0 mph6.4 kmh 29.80 in1009.1 mb 0.00 in0.0 mm 0.00 in0.0 mm 0.00 in0.0 mm
12:30 AM 69.6°F20.9°C 49.1°F9.5°C 48% 2.0 mph WSW3.2 kmh WSW 5.0 mph8.0 kmh 29.80 in1009.1 mb 0.00 in0.0 mm 0.00 in0.0 mm 0.00 in0.0 mm
12:35 AM 70.0°F21.1°C 48.3°F9.1°C 46% 1.0 mph WSW1.6 kmh WSW 6.0 mph9.7 kmh 29.80 in1009.1 mb 0.00 in0.0 mm 0.00 in0.0 mm 0.00 in0.0 mm
12:40 AM 70.2°F21.2°C 47.3°F8.5°C 44% 4.0 mph W6.4 kmh W 6.0 mph9.7 kmh 29.80 in1009.1 mb 0.00 in0.0 mm 0.00 in0.0 mm 0.00 in0.0 mm
12:45 AM 70.5°F21.4°C 47.0°F8.3°C 43% 6.0 mph WSW9.7 kmh WSW 6.0 mph9.7 kmh 29.80 in1009.1 mb 0.00 in0.0 mm 0.00 in0.0 mm 0.00 in0.0 mm
12:50 AM 70.6°F21.4°C 46.4°F8.0°C 42% 2.0 mph W3.2 kmh W 7.0 mph11.3 kmh 29.80 in1009.1 mb 0.00 in0.0 mm 0.00 in0.0 mm 0.00 in0.0 mm
12:55 AM 70.3°F21.3°C 46.2°F7.9°C 42% 3.0 mph W4.8 kmh W 9.0 mph14.5 kmh 29.80 in1009.1 mb 0.00 in0.0 mm 0.00 in0.0 mm 0.00 in0.0 mm
01:00 AM 70.3°F21.3°C 45.5°F7.5°C 41% 7.0 mph WSW11.3 kmh WSW 9.0 mph14.5 kmh 29.80 in1009.1 mb 0.00 in0.0 mm 0.00 in0.0 mm 0.00 in0.0 mm
01:05 AM 70.1°F21.2°C 45.3°F7.4°C 41% 4.0 mph W6.4 kmh W 7.0 mph11.3 kmh 29.81 in1009.5 mb 0.00 in0.0 mm 0.00 in0.0 mm 0.00 in0.0 mm
01:10 AM 70.2°F21.2°C 45.4°F7.4°C 41% 5.0 mph W8.0 kmh W 7.0 mph11.3 kmh 29.81 in1009.5 mb 0.00 in0.0 mm 0.00 in0.0 mm 0.00 in0.0 mm
01:15 AM 70.1°F21.2°C 44.7°F7.1°C 40% 2.0 mph W3.2 kmh W 7.0 mph11.3 kmh 29.81 in1009.5 mb 0.00 in0.0 mm 0.00 in0.0 mm 0.00 in0.0 mm
01:20 AM 70.1°F21.2°C 44.0°F6.7°C 39% Calm Calm 6.0 mph9.7 kmh 29.81 in1009.5 mb 0.00 in0.0 mm 0.00 in0.0 mm 0.00 in0.0 mm
01:25 AM 70.2°F21.2°C 44.8°F7.1°C 40% 1.0 mph W1.6 kmh W 6.0 mph9.7 kmh 29.81 in1009.5 mb 0.00 in0.0 mm 0.00 in0.0 mm 0.00 in0.0 mm
01:30 AM 69.8°F21.0°C 44.4°F6.9°C 40% 6.0 mph W9.7 kmh W 6.0 mph9.7 kmh 29.81 in1009.5 mb 0.00 in0.0 mm 0.00 in0.0 mm 0.00 in0.0 mm
01:35 AM 69.7°F20.9°C 44.3°F6.8°C 40% 4.0 mph W6.4 kmh W 5.0 mph8.0 kmh 29.81 in1009.5 mb 0.00 in0.0 mm 0.00 in0.0 mm 0.00 in0.0 mm
01:40 AM 69.7°F20.9°C 44.3°F6.8°C 40% 1.0 mph WSW1.6 kmh WSW 5.0 mph8.0 kmh 29.81 in1009.5 mb 0.00 in0.0 mm 0.00 in0.0 mm 0.00 in0.0 mm
01:45 AM 69.2°F20.7°C 43.9°F6.6°C 40% Calm Calm 5.0 mph8.0 kmh 29.81 in1009.5 mb 0.00 in0.0 mm 0.00 in0.0 mm 0.00 in0.0 mm
01:50 AM 68.9°F20.5°C 43.6°F6.4°C 40% 2.0 mph W3.2 kmh W 3.0 mph4.8 kmh 29.81 in1009.5 mb 0.00 in0.0 mm 0.00 in0.0 mm 0.00 in0.0 mm
01:55 AM 69.1°F20.6°C 43.1°F6.2°C 39% 1.0 mph WNW1.6 kmh WNW 5.0 mph8.0 kmh 29.81 in1009.5 mb 0.00 in0.0 mm 0.00 in0.0 mm 0.00 in0.0 mm
02:00 AM 68.9°F20.5°C 43.6°F6.4°C 40% 2.0 mph W3.2 kmh W 5.0 mph8.0 kmh 29.81 in1009.5 mb 0.00 in0.0 mm 0.00 in0.0 mm 0.00 in0.0 mm
02:05 AM 68.3°F20.2°C 43.7°F6.5°C 41% Calm Calm 2.0 mph3.2 kmh 29.81 in1009.5 mb 0.00 in0.0 mm 0.00 in0.0 mm 0.00 in0.0 mm
02:10 AM 68.0°F20.0°C 43.5°F6.4°C 41% 3.0 mph W4.8 kmh W 4.0 mph6.4 kmh 29.82 in1009.8 mb 0.00 in0.0 mm 0.00 in0.0 mm 0.00 in0.0 mm
02:15 AM 67.8°F19.9°C 43.9°F6.6°C 42% Calm Calm 4.0 mph6.4 kmh 29.82 in1009.8 mb 0.00 in0.0 mm 0.00 in0.0 mm 0.00 in0.0 mm
02:20 AM 68.2°F20.1°C 43.6°F6.4°C 41% Calm Calm 4.0 mph6.4 kmh 29.82 in1009.8 mb 0.00 in0.0 mm 0.00 in0.0 mm 0.00 in0.0 mm
02:25 AM 68.2°F20.1°C 43.0°F6.1°C 40% Calm Calm 4.0 mph6.4 kmh 29.82 in1009.8 mb 0.00 in0.0 mm 0.00 in0.0 mm 0.00 in0.0 mm
02:30 AM 67.8°F19.9°C 43.3°F6.3°C 41% Calm Calm 4.0 mph6.4 kmh 29.82 in1009.8 mb 0.00 in0.0 mm 0.00 in0.0 mm 0.00 in0.0 mm
02:35 AM 67.9°F19.9°C 42.7°F5.9°C 40% Calm Calm 3.0 mph4.8 kmh 29.82 in1009.8 mb 0.00 in0.0 mm 0.00 in0.0 mm 0.00 in0.0 mm
02:40 AM 68.2°F20.1°C 43.0°F6.1°C 40% 1.0 mph WNW1.6 kmh WNW 5.0 mph8.0 kmh 29.82 in1009.8 mb 0.00 in0.0 mm 0.00 in0.0 mm 0.00 in0.0 mm
02:45 AM 68.3°F20.2°C 42.4°F5.8°C 39% 4.0 mph WSW6.4 kmh WSW 5.0 mph8.0 kmh 29.82 in1009.8 mb 0.00 in0.0 mm 0.00 in0.0 mm 0.00 in0.0 mm
02:50 AM 68.3°F20.2°C 41.7°F5.4°C 38% 4.0 mph WSW6.4 kmh WSW 7.0 mph11.3 kmh 29.82 in1009.8 mb 0.00 in0.0 mm 0.00 in0.0 mm 0.00 in0.0 mm
02:55 AM 68.3°F20.2°C 41.7°F5.4°C 38% 4.0 mph WNW6.4 kmh WNW 7.0 mph11.3 kmh 29.82 in1009.8 mb 0.00 in0.0 mm 0.00 in0.0 mm 0.00 in0.0 mm
03:00 AM 68.2°F20.1°C 41.7°F5.4°C 38% 1.0 mph WNW1.6 kmh WNW 7.0 mph11.3 kmh 29.83 in1010.2 mb 0.00 in0.0 mm 0.00 in0.0 mm 0.00 in0.0 mm
03:05 AM 68.3°F20.2°C 41.7°F5.4°C 38% 2.0 mph WNW3.2 kmh WNW 8.0 mph12.9 kmh 29.83 in1010.2 mb 0.00 in0.0 mm 0.00 in0.0 mm 0.00 in0.0 mm
03:10 AM 68.3°F20.2°C 41.1°F5.1°C 37% 1.0 mph WNW1.6 kmh WNW 8.0 mph12.9 kmh 29.83 in1010.2 mb 0.00 in0.0 mm 0.00 in0.0 mm 0.00 in0.0 mm
03:15 AM 68.2°F20.1°C 41.0°F5.0°C 37% 6.0 mph WNW9.7 kmh WNW 8.0 mph12.9 kmh 29.83 in1010.2 mb 0.00 in0.0 mm 0.00 in0.0 mm 0.00 in0.0 mm
03:20 AM 68.2°F20.1°C 41.0°F5.0°C 37% 3.0 mph WNW4.8 kmh WNW 9.0 mph14.5 kmh 29.83 in1010.2 mb 0.00 in0.0 mm 0.00 in0.0 mm 0.00 in0.0 mm
03:25 AM 68.0°F20.0°C 40.8°F4.9°C 37% 2.0 mph NW3.2 kmh NW 9.0 mph14.5 kmh 29.83 in1010.2 mb 0.00 in0.0 mm 0.00 in0.0 mm 0.00 in0.0 mm
03:30 AM 67.8°F19.9°C 41.3°F5.2°C 38% 3.0 mph WNW4.8 kmh WNW 9.0 mph14.5 kmh 29.83 in1010.2 mb 0.00 in0.0 mm 0.00 in0.0 mm 0.00 in0.0 mm
03:35 AM 67.8°F19.9°C 41.3°F5.2°C 38% 2.0 mph NW3.2 kmh NW 8.0 mph12.9 kmh 29.83 in1010.2 mb 0.00 in0.0 mm 0.00 in0.0 mm 0.00 in0.0 mm
03:40 AM 67.7°F19.8°C 40.5°F4.7°C 37% 3.0 mph WNW4.8 kmh WNW 9.0 mph14.5 kmh 29.83 in1010.2 mb 0.00 in0.0 mm 0.00 in0.0 mm 0.00 in0.0 mm
03:45 AM 67.6°F19.8°C 41.1°F5.1°C 38% 6.0 mph W9.7 kmh W 9.0 mph14.5 kmh 29.84 in1010.5 mb 0.00 in0.0 mm 0.00 in0.0 mm 0.00 in0.0 mm
03:50 AM 67.5°F19.7°C 41.0°F5.0°C 38% 6.0 mph NW9.7 kmh NW 6.0 mph9.7 kmh 29.84 in1010.5 mb 0.00 in0.0 mm 0.00 in0.0 mm 0.00 in0.0 mm
03:55 AM 67.5°F19.7°C 41.0°F5.0°C 38% 4.0 mph WNW6.4 kmh WNW 9.0 mph14.5 kmh 29.84 in1010.5 mb 0.00 in0.0 mm 0.00 in0.0 mm 0.00 in0.0 mm
04:00 AM 67.6°F19.8°C 41.1°F5.1°C 38% 7.0 mph NW11.3 kmh NW 10.0 mph16.1 kmh 29.84 in1010.5 mb 0.00 in0.0 mm 0.00 in0.0 mm 0.00 in0.0 mm
04:05 AM 67.5°F19.7°C 41.0°F5.0°C 38% 4.0 mph NW6.4 kmh NW 7.0 mph11.3 kmh 29.84 in1010.5 mb 0.00 in0.0 mm 0.00 in0.0 mm 0.00 in0.0 mm
04:10 AM 67.4°F19.7°C 40.9°F4.9°C 38% 4.0 mph W6.4 kmh W 8.0 mph12.9 kmh 29.84 in1010.5 mb 0.00 in0.0 mm 0.00 in0.0 mm 0.00 in0.0 mm
04:15 AM 67.1°F19.5°C 41.3°F5.2°C 39% 1.0 mph WNW1.6 kmh WNW 8.0 mph12.9 kmh 29.85 in1010.8 mb 0.00 in0.0 mm 0.00 in0.0 mm 0.00 in0.0 mm
04:20 AM 66.8°F19.3°C 41.1°F5.1°C 39% 3.0 mph NW4.8 kmh NW 5.0 mph8.0 kmh 29.85 in1010.8 mb 0.00 in0.0 mm 0.00 in0.0 mm 0.00 in0.0 mm
04:25 AM 66.6°F19.2°C 41.6°F5.3°C 40% Calm Calm 8.0 mph12.9 kmh 29.85 in1010.8 mb 0.00 in0.0 mm 0.00 in0.0 mm 0.00 in0.0 mm
04:30 AM 66.6°F19.2°C 40.9°F4.9°C 39% 4.0 mph NW6.4 kmh NW 9.0 mph14.5 kmh 29.85 in1010.8 mb 0.00 in0.0 mm 0.00 in0.0 mm 0.00 in0.0 mm
04:35 AM 66.5°F19.2°C 40.8°F4.9°C 39% 2.0 mph NW3.2 kmh NW 6.0 mph9.7 kmh 29.85 in1010.8 mb 0.00 in0.0 mm 0.00 in0.0 mm 0.00 in0.0 mm
04:40 AM 66.4°F19.1°C 41.4°F5.2°C 40% 3.0 mph WNW4.8 kmh WNW 7.0 mph11.3 kmh 29.85 in1010.8 mb 0.00 in0.0 mm 0.00 in0.0 mm 0.00 in0.0 mm
04:45 AM 66.4°F19.1°C 41.4°F5.2°C 40% 1.0 mph NW1.6 kmh NW 7.0 mph11.3 kmh 29.86 in1011.2 mb 0.00 in0.0 mm 0.00 in0.0 mm 0.00 in0.0 mm
04:50 AM 66.2°F19.0°C 41.2°F5.1°C 40% 2.0 mph NW3.2 kmh NW 9.0 mph14.5 kmh 29.86 in1011.2 mb 0.00 in0.0 mm 0.00 in0.0 mm 0.00 in0.0 mm
04:55 AM 66.2°F19.0°C 41.2°F5.1°C 40% 3.0 mph NW4.8 kmh NW 9.0 mph14.5 kmh 29.86 in1011.2 mb 0.00 in0.0 mm 0.00 in0.0 mm 0.00 in0.0 mm
05:00 AM 66.0°F18.9°C 41.0°F5.0°C 40% 5.0 mph NW8.0 kmh NW 9.0 mph14.5 kmh 29.86 in1011.2 mb 0.00 in0.0 mm 0.00 in0.0 mm 0.00 in0.0 mm
05:05 AM 65.6°F18.7°C 41.3°F5.2°C 41% 6.0 mph NW9.7 kmh NW 6.0 mph9.7 kmh 29.87 in1011.5 mb 0.00 in0.0 mm 0.00 in0.0 mm 0.00 in0.0 mm
05:10 AM 65.2°F18.4°C 41.6°F5.3°C 42% Calm Calm 7.0 mph11.3 kmh 29.87 in1011.5 mb 0.00 in0.0 mm 0.00 in0.0 mm 0.00 in0.0 mm
05:15 AM 64.6°F18.1°C 41.6°F5.3°C 43% Calm Calm 7.0 mph11.3 kmh 29.87 in1011.5 mb 0.00 in0.0 mm 0.00 in0.0 mm 0.00 in0.0 mm
05:20 AM 64.1°F17.8°C 41.8°F5.4°C 44% Calm Calm 1.0 mph1.6 kmh 29.88 in1011.9 mb 0.00 in0.0 mm 0.00 in0.0 mm 0.00 in0.0 mm
05:25 AM 63.7°F17.6°C 42.0°F5.6°C 45% Calm Calm 1.0 mph1.6 kmh 29.88 in1011.9 mb 0.00 in0.0 mm 0.00 in0.0 mm 0.00 in0.0 mm
05:30 AM 63.5°F17.5°C 41.8°F5.4°C 45% Calm Calm 2.0 mph3.2 kmh 29.88 in1011.9 mb 0.00 in0.0 mm 0.00 in0.0 mm 0.00 in0.0 mm
05:35 AM 63.4°F17.4°C 42.3°F5.7°C 46% 3.0 mph NW4.8 kmh NW 4.0 mph6.4 kmh 29.88 in1011.9 mb 0.00 in0.0 mm 0.00 in0.0 mm 0.00 in0.0 mm
05:40 AM 63.3°F17.4°C 42.2°F5.7°C 46% Calm Calm 6.0 mph9.7 kmh 29.89 in1012.2 mb 0.00 in0.0 mm 0.00 in0.0 mm 0.00 in0.0 mm
05:45 AM 63.0°F17.2°C 42.5°F5.8°C 47% Calm Calm 6.0 mph9.7 kmh 29.89 in1012.2 mb 0.00 in0.0 mm 0.00 in0.0 mm 0.00 in0.0 mm
05:50 AM 62.8°F17.1°C 42.8°F6.0°C 48% Calm Calm -- 29.89 in1012.2 mb 0.00 in0.0 mm 0.00 in0.0 mm 0.00 in0.0 mm
05:55 AM 62.8°F17.1°C 42.3°F5.7°C 47% Calm Calm 1.0 mph1.6 kmh 29.89 in1012.2 mb 0.00 in0.0 mm 0.00 in0.0 mm 0.00 in0.0 mm
06:00 AM 62.9°F17.2°C 42.4°F5.8°C 47% 3.0 mph NW4.8 kmh NW 4.0 mph6.4 kmh 29.89 in1012.2 mb 0.00 in0.0 mm 0.00 in0.0 mm 0.00 in0.0 mm
06:05 AM 62.8°F17.1°C 42.8°F6.0°C 48% 2.0 mph NW3.2 kmh NW 4.0 mph6.4 kmh 29.89 in1012.2 mb 0.00 in0.0 mm 0.00 in0.0 mm 0.00 in0.0 mm
06:10 AM 62.9°F17.2°C 42.9°F6.1°C 48% Calm Calm 5.0 mph8.0 kmh 29.90 in1012.5 mb 0.00 in0.0 mm 0.00 in0.0 mm 0.00 in0.0 mm
06:15 AM 63.1°F17.3°C 42.6°F5.9°C 47% 3.0 mph NW4.8 kmh NW 5.0 mph8.0 kmh 29.90 in1012.5 mb 0.00 in0.0 mm 0.00 in0.0 mm 0.00 in0.0 mm
06:20 AM 63.5°F17.5°C 42.9°F6.1°C 47% 2.0 mph NW3.2 kmh NW 6.0 mph9.7 kmh 29.90 in1012.5 mb 0.00 in0.0 mm 0.00 in0.0 mm 0.00 in0.0 mm
06:25 AM 64.5°F18.1°C 42.1°F5.6°C 44% 7.0 mph NW11.3 kmh NW 7.0 mph11.3 kmh 29.90 in1012.5 mb 0.00 in0.0 mm 0.00 in0.0 mm 0.00 in0.0 mm
06:30 AM 65.2°F18.4°C 41.6°F5.3°C 42% 5.0 mph NW8.0 kmh NW 9.0 mph14.5 kmh 29.90 in1012.5 mb 0.00 in0.0 mm 0.00 in0.0 mm 0.00 in0.0 mm
06:35 AM 65.5°F18.6°C 41.8°F5.4°C 42% 6.0 mph WNW9.7 kmh WNW 8.0 mph12.9 kmh 29.90 in1012.5 mb 0.00 in0.0 mm 0.00 in0.0 mm 0.00 in0.0 mm
06:40 AM 65.5°F18.6°C 41.8°F5.4°C 42% 3.0 mph NW4.8 kmh NW 8.0 mph12.9 kmh 29.90 in1012.5 mb 0.00 in0.0 mm 0.00 in0.0 mm 0.00 in0.0 mm
06:45 AM 65.5°F18.6°C 41.8°F5.4°C 42% 8.0 mph W12.9 kmh W 9.0 mph14.5 kmh 29.91 in1012.9 mb 0.00 in0.0 mm 0.00 in0.0 mm 0.00 in0.0 mm
06:50 AM 65.7°F18.7°C 41.4°F5.2°C 41% 2.0 mph WNW3.2 kmh WNW 8.0 mph12.9 kmh 29.91 in1012.9 mb 0.00 in0.0 mm 0.00 in0.0 mm 0.00 in0.0 mm
06:55 AM 66.0°F18.9°C 41.0°F5.0°C 40% 5.0 mph NW8.0 kmh NW 8.0 mph12.9 kmh 29.91 in1012.9 mb 0.00 in0.0 mm 0.00 in0.0 mm 0.00 in0.0 mm
07:00 AM 66.4°F19.1°C 40.7°F4.8°C 39% 6.0 mph NW9.7 kmh NW 8.0 mph12.9 kmh 29.91 in1012.9 mb 0.00 in0.0 mm 0.00 in0.0 mm 0.00 in0.0 mm
07:05 AM 66.7°F19.3°C 40.3°F4.6°C 38% 5.0 mph NW8.0 kmh NW 7.0 mph11.3 kmh 29.91 in1012.9 mb 0.00 in0.0 mm 0.00 in0.0 mm 0.00 in0.0 mm
07:10 AM 67.1°F19.5°C 40.7°F4.8°C 38% 6.0 mph NW9.7 kmh NW 9.0 mph14.5 kmh 29.91 in1012.9 mb 0.00 in0.0 mm 0.00 in0.0 mm 0.00 in0.0 mm
07:15 AM 67.3°F19.6°C 40.9°F4.9°C 38% 4.0 mph NW6.4 kmh NW 10.0 mph16.1 kmh 29.92 in1013.2 mb 0.00 in0.0 mm 0.00 in0.0 mm 0.00 in0.0 mm
07:20 AM 67.4°F19.7°C 40.9°F4.9°C 38% 5.0 mph NW8.0 kmh NW 9.0 mph14.5 kmh 29.92 in1013.2 mb 0.00 in0.0 mm 0.00 in0.0 mm 0.00 in0.0 mm
07:25 AM 67.7°F19.8°C 41.2°F5.1°C 38% 6.0 mph NW9.7 kmh NW 9.0 mph14.5 kmh 29.92 in1013.2 mb 0.00 in0.0 mm 0.00 in0.0 mm 0.00 in0.0 mm
07:30 AM 67.9°F19.9°C 41.4°F5.2°C 38% 3.0 mph NW4.8 kmh NW 9.0 mph14.5 kmh 29.92 in1013.2 mb 0.00 in0.0 mm 0.00 in0.0 mm 0.00 in0.0 mm
07:35 AM 68.1°F20.1°C 41.6°F5.3°C 38% 4.0 mph NW6.4 kmh NW 7.0 mph11.3 kmh 29.92 in1013.2 mb 0.00 in0.0 mm 0.00 in0.0 mm 0.00 in0.0 mm
07:40 AM 68.4°F20.2°C 41.8°F5.4°C 38% 4.0 mph NW6.4 kmh NW 8.0 mph12.9 kmh 29.93 in1013.5 mb 0.00 in0.0 mm 0.00 in0.0 mm 0.00 in0.0 mm
07:45 AM 68.7°F20.4°C 41.4°F5.2°C 37% 6.0 mph NW9.7 kmh NW 9.0 mph14.5 kmh 29.93 in1013.5 mb 0.00 in0.0 mm 0.00 in0.0 mm 0.00 in0.0 mm
07:50 AM 68.9°F20.5°C 40.9°F4.9°C 36% 2.0 mph NW3.2 kmh NW 8.0 mph12.9 kmh 29.93 in1013.5 mb 0.00 in0.0 mm 0.00 in0.0 mm 0.00 in0.0 mm
07:55 AM 69.1°F20.6°C 41.1°F5.1°C 36% 2.0 mph NW3.2 kmh NW 10.0 mph16.1 kmh 29.93 in1013.5 mb 0.00 in0.0 mm 0.00 in0.0 mm 0.00 in0.0 mm
08:00 AM 69.4°F20.8°C 40.6°F4.8°C 35% 2.0 mph WSW3.2 kmh WSW 10.0 mph16.1 kmh 29.93 in1013.5 mb 0.00 in0.0 mm 0.00 in0.0 mm 0.00 in0.0 mm
08:05 AM 69.7°F20.9°C 41.6°F5.3°C 36% 2.0 mph WNW3.2 kmh WNW 7.0 mph11.3 kmh 29.93 in1013.5 mb 0.00 in0.0 mm 0.00 in0.0 mm 0.00 in0.0 mm
08:10 AM 69.8°F21.0°C 40.9°F4.9°C 35% 6.0 mph NW9.7 kmh NW 8.0 mph12.9 kmh 29.94 in1013.9 mb 0.00 in0.0 mm 0.00 in0.0 mm 0.00 in0.0 mm
08:15 AM 70.1°F21.2°C 42.7°F5.9°C 37% 3.0 mph NW4.8 kmh NW 8.0 mph12.9 kmh 29.94 in1013.9 mb 0.00 in0.0 mm 0.00 in0.0 mm 0.00 in0.0 mm
08:20 AM 70.1°F21.2°C 41.9°F5.5°C 36% 6.0 mph NW9.7 kmh NW 10.0 mph16.1 kmh 29.94 in1013.9 mb 0.00 in0.0 mm 0.00 in0.0 mm 0.00 in0.0 mm
08:25 AM 70.4°F21.3°C 42.2°F5.7°C 36% Calm Calm 10.0 mph16.1 kmh 29.94 in1013.9 mb 0.00 in0.0 mm 0.00 in0.0 mm 0.00 in0.0 mm
08:30 AM 71.0°F21.7°C 43.4°F6.3°C 37% Calm Calm 10.0 mph16.1 kmh 29.94 in1013.9 mb 0.00 in0.0 mm 0.00 in0.0 mm 0.00 in0.0 mm
08:35 AM 71.2°F21.8°C 43.6°F6.4°C 37% 1.0 mph N1.6 kmh N 5.0 mph8.0 kmh 29.94 in1013.9 mb 0.00 in0.0 mm 0.00 in0.0 mm 0.00 in0.0 mm
08:40 AM 71.7°F22.1°C 42.6°F5.9°C 35% 5.0 mph NNW8.0 kmh NNW 7.0 mph11.3 kmh 29.94 in1013.9 mb 0.00 in0.0 mm 0.00 in0.0 mm 0.00 in0.0 mm
08:45 AM 71.8°F22.1°C 43.4°F6.3°C 36% 1.0 mph NW1.6 kmh NW 7.0 mph11.3 kmh 29.94 in1013.9 mb 0.00 in0.0 mm 0.00 in0.0 mm 0.00 in0.0 mm
08:50 AM 71.7°F22.1°C 43.4°F6.3°C 36% 1.0 mph W1.6 kmh W 6.0 mph9.7 kmh 29.95 in1014.2 mb 0.00 in0.0 mm 0.00 in0.0 mm 0.00 in0.0 mm
08:55 AM 72.2°F22.3°C 43.1°F6.2°C 35% 1.0 mph NW1.6 kmh NW 9.0 mph14.5 kmh 29.95 in1014.2 mb 0.00 in0.0 mm 0.00 in0.0 mm 0.00 in0.0 mm
09:00 AM 72.7°F22.6°C 44.2°F6.8°C 36% 2.0 mph NNW3.2 kmh NNW 9.0 mph14.5 kmh 29.95 in1014.2 mb 0.00 in0.0 mm 0.00 in0.0 mm 0.00 in0.0 mm
09:05 AM 73.0°F22.8°C 43.8°F6.6°C 35% 4.0 mph N6.4 kmh N 5.0 mph8.0 kmh 29.95 in1014.2 mb 0.00 in0.0 mm 0.00 in0.0 mm 0.00 in0.0 mm
09:10 AM 73.4°F23.0°C 44.1°F6.7°C 35% 2.0 mph NW3.2 kmh NW 7.0 mph11.3 kmh 29.95 in1014.2 mb 0.00 in0.0 mm 0.00 in0.0 mm 0.00 in0.0 mm
09:15 AM 74.4°F23.6°C 44.2°F6.8°C 34% 2.0 mph N3.2 kmh N 7.0 mph11.3 kmh 29.95 in1014.2 mb 0.00 in0.0 mm 0.00 in0.0 mm 0.00 in0.0 mm
09:20 AM 74.6°F23.7°C 43.6°F6.4°C 33% 2.0 mph WNW3.2 kmh WNW 6.0 mph9.7 kmh 29.95 in1014.2 mb 0.00 in0.0 mm 0.00 in0.0 mm 0.00 in0.0 mm
09:25 AM 74.9°F23.8°C 43.9°F6.6°C 33% 3.0 mph N4.8 kmh N 6.0 mph9.7 kmh 29.95 in1014.2 mb 0.00 in0.0 mm 0.00 in0.0 mm 0.00 in0.0 mm
09:30 AM 75.5°F24.2°C 43.6°F6.4°C 32% 3.0 mph NW4.8 kmh NW 9.0 mph14.5 kmh 29.95 in1014.2 mb 0.00 in0.0 mm 0.00 in0.0 mm 0.00 in0.0 mm
09:35 AM 75.9°F24.4°C 44.0°F6.7°C 32% 8.0 mph WNW12.9 kmh WNW 8.0 mph12.9 kmh 29.95 in1014.2 mb 0.00 in0.0 mm 0.00 in0.0 mm 0.00 in0.0 mm
09:40 AM 76.4°F24.7°C 42.7°F5.9°C 30% 2.0 mph NW3.2 kmh NW 9.0 mph14.5 kmh 29.95 in1014.2 mb 0.00 in0.0 mm 0.00 in0.0 mm 0.00 in0.0 mm
09:45 AM 76.7°F24.8°C 42.1°F5.6°C 29% 7.0 mph NW11.3 kmh NW 10.0 mph16.1 kmh 29.95 in1014.2 mb 0.00 in0.0 mm 0.00 in0.0 mm 0.00 in0.0 mm
09:50 AM 76.8°F24.9°C 43.1°F6.2°C 30% 4.0 mph NW6.4 kmh NW 7.0 mph11.3 kmh 29.95 in1014.2 mb 0.00 in0.0 mm 0.00 in0.0 mm 0.00 in0.0 mm
09:55 AM 77.4°F25.2°C 42.7°F5.9°C 29% 11.0 mph NW17.7 kmh NW 11.0 mph17.7 kmh 29.95 in1014.2 mb 0.00 in0.0 mm 0.00 in0.0 mm 0.00 in0.0 mm
10:00 AM 76.6°F24.8°C 42.0°F5.6°C 29% 4.0 mph NW6.4 kmh NW 11.0 mph17.7 kmh 29.95 in1014.2 mb 0.00 in0.0 mm 0.00 in0.0 mm 0.00 in0.0 mm
10:05 AM 77.3°F25.2°C 41.7°F5.4°C 28% 5.0 mph N8.0 kmh N 8.0 mph12.9 kmh 29.95 in1014.2 mb 0.00 in0.0 mm 0.00 in0.0 mm 0.00 in0.0 mm
10:10 AM 78.0°F25.6°C 42.3°F5.7°C 28% 3.0 mph WSW4.8 kmh WSW 8.0 mph12.9 kmh 29.95 in1014.2 mb 0.00 in0.0 mm 0.00 in0.0 mm 0.00 in0.0 mm
10:15 AM 77.2°F25.1°C 42.5°F5.8°C 29% 3.0 mph NW4.8 kmh NW 8.0 mph12.9 kmh 29.95 in1014.2 mb 0.00 in0.0 mm 0.00 in0.0 mm 0.00 in0.0 mm
10:20 AM 77.9°F25.5°C 42.2°F5.7°C 28% 3.0 mph WNW4.8 kmh WNW 9.0 mph14.5 kmh 29.95 in1014.2 mb 0.00 in0.0 mm 0.00 in0.0 mm 0.00 in0.0 mm
10:25 AM 78.0°F25.6°C 42.3°F5.7°C 28% 5.0 mph N8.0 kmh N 11.0 mph17.7 kmh 29.95 in1014.2 mb 0.00 in0.0 mm 0.00 in0.0 mm 0.00 in0.0 mm
10:30 AM 78.2°F25.7°C 42.5°F5.8°C 28% 4.0 mph NW6.4 kmh NW 11.0 mph17.7 kmh 29.95 in1014.2 mb 0.00 in0.0 mm 0.00 in0.0 mm 0.00 in0.0 mm
10:35 AM 78.7°F25.9°C 42.9°F6.1°C 28% 3.0 mph NW4.8 kmh NW 9.0 mph14.5 kmh 29.95 in1014.2 mb 0.00 in0.0 mm 0.00 in0.0 mm 0.00 in0.0 mm
10:40 AM 78.9°F26.1°C 43.1°F6.2°C 28% 5.0 mph WNW8.0 kmh WNW 9.0 mph14.5 kmh 29.95 in1014.2 mb 0.00 in0.0 mm 0.00 in0.0 mm 0.00 in0.0 mm
10:45 AM 79.6°F26.4°C 42.7°F5.9°C 27% 1.0 mph NW1.6 kmh NW 10.0 mph16.1 kmh 29.95 in1014.2 mb 0.00 in0.0 mm 0.00 in0.0 mm 0.00 in0.0 mm
10:50 AM 80.1°F26.7°C 44.1°F6.7°C 28% 4.0 mph W6.4 kmh W 8.0 mph12.9 kmh 29.95 in1014.2 mb 0.00 in0.0 mm 0.00 in0.0 mm 0.00 in0.0 mm
10:55 AM 79.7°F26.5°C 42.8°F6.0°C 27% 2.0 mph NW3.2 kmh NW 9.0 mph14.5 kmh 29.95 in1014.2 mb 0.00 in0.0 mm 0.00 in0.0 mm 0.00 in0.0 mm
11:00 AM 80.4°F26.9°C 41.4°F5.2°C 25% 5.0 mph N8.0 kmh N 11.0 mph17.7 kmh 29.95 in1014.2 mb 0.00 in0.0 mm 0.00 in0.0 mm 0.00 in0.0 mm
11:05 AM 81.2°F27.3°C 42.1°F5.6°C 25% 4.0 mph NW6.4 kmh NW 9.0 mph14.5 kmh 29.95 in1014.2 mb 0.00 in0.0 mm 0.00 in0.0 mm 0.00 in0.0 mm
11:10 AM 81.4°F27.4°C 41.2°F5.1°C 24% 2.0 mph NW3.2 kmh NW 9.0 mph14.5 kmh 29.95 in1014.2 mb 0.00 in0.0 mm 0.00 in0.0 mm 0.00 in0.0 mm
11:15 AM 81.9°F27.7°C 41.6°F5.3°C 24% 4.0 mph NW6.4 kmh NW 9.0 mph14.5 kmh 29.95 in1014.2 mb 0.00 in0.0 mm 0.00 in0.0 mm 0.00 in0.0 mm
11:20 AM 81.2°F27.3°C 41.0°F5.0°C 24% 5.0 mph NNW8.0 kmh NNW 7.0 mph11.3 kmh 29.95 in1014.2 mb 0.00 in0.0 mm 0.00 in0.0 mm 0.00 in0.0 mm
11:25 AM 82.1°F27.8°C 40.7°F4.8°C 23% 6.0 mph W9.7 kmh W 11.0 mph17.7 kmh 29.95 in1014.2 mb 0.00 in0.0 mm 0.00 in0.0 mm 0.00 in0.0 mm
11:30 AM 82.4°F28.0°C 42.0°F5.6°C 24% 2.0 mph NW3.2 kmh NW 11.0 mph17.7 kmh 29.95 in1014.2 mb 0.00 in0.0 mm 0.00 in0.0 mm 0.00 in0.0 mm
11:35 AM 83.3°F28.5°C 39.3°F4.1°C 21% 8.0 mph NW12.9 kmh NW 15.0 mph24.1 kmh 29.94 in1013.9 mb 0.00 in0.0 mm 0.00 in0.0 mm 0.00 in0.0 mm
11:40 AM 83.1°F28.4°C 41.5°F5.3°C 23% 7.0 mph NW11.3 kmh NW 15.0 mph24.1 kmh 29.94 in1013.9 mb 0.00 in0.0 mm 0.00 in0.0 mm 0.00 in0.0 mm
11:45 AM 82.5°F28.1°C 39.9°F4.4°C 22% 5.0 mph W8.0 kmh W 15.0 mph24.1 kmh 29.94 in1013.9 mb 0.00 in0.0 mm 0.00 in0.0 mm 0.00 in0.0 mm
11:50 AM 83.0°F28.3°C 42.5°F5.8°C 24% 3.0 mph NW4.8 kmh NW 7.0 mph11.3 kmh 29.94 in1013.9 mb 0.00 in0.0 mm 0.00 in0.0 mm 0.00 in0.0 mm
11:55 AM 83.2°F28.4°C 41.6°F5.3°C 23% 5.0 mph NNW8.0 kmh NNW 12.0 mph19.3 kmh 29.94 in1013.9 mb 0.00 in0.0 mm 0.00 in0.0 mm 0.00 in0.0 mm
12:00 PM 84.1°F28.9°C 40.0°F4.4°C 21% 6.0 mph WNW9.7 kmh WNW 12.0 mph19.3 kmh 29.94 in1013.9 mb 0.00 in0.0 mm 0.00 in0.0 mm 0.00 in0.0 mm
12:05 PM 83.1°F28.4°C 41.5°F5.3°C 23% 6.0 mph NW9.7 kmh NW 12.0 mph19.3 kmh 29.94 in1013.9 mb 0.00 in0.0 mm 0.00 in0.0 mm 0.00 in0.0 mm
12:10 PM 83.6°F28.7°C 41.9°F5.5°C 23% 2.0 mph N3.2 kmh N 13.0 mph20.9 kmh 29.94 in1013.9 mb 0.00 in0.0 mm 0.00 in0.0 mm 0.00 in0.0 mm
12:15 PM 84.2°F29.0°C 42.4°F5.8°C 23% 8.0 mph NW12.9 kmh NW 13.0 mph20.9 kmh 29.94 in1013.9 mb 0.00 in0.0 mm 0.00 in0.0 mm 0.00 in0.0 mm
12:20 PM 83.9°F28.8°C 41.0°F5.0°C 22% 4.0 mph WSW6.4 kmh WSW 9.0 mph14.5 kmh 29.94 in1013.9 mb 0.00 in0.0 mm 0.00 in0.0 mm 0.00 in0.0 mm
12:25 PM 84.0°F28.9°C 41.1°F5.1°C 22% 3.0 mph NW4.8 kmh NW 9.0 mph14.5 kmh 29.94 in1013.9 mb 0.00 in0.0 mm 0.00 in0.0 mm 0.00 in0.0 mm
12:30 PM 84.8°F29.3°C 39.3°F4.1°C 20% 5.0 mph WNW8.0 kmh WNW 14.0 mph22.5 kmh 29.94 in1013.9 mb 0.00 in0.0 mm 0.00 in0.0 mm 0.00 in0.0 mm
12:35 PM 84.3°F29.1°C 38.9°F3.8°C 20% 3.0 mph W4.8 kmh W 8.0 mph12.9 kmh 29.93 in1013.5 mb 0.00 in0.0 mm 0.00 in0.0 mm 0.00 in0.0 mm
12:40 PM 84.2°F29.0°C 40.1°F4.5°C 21% 5.0 mph NW8.0 kmh NW 12.0 mph19.3 kmh 29.94 in1013.9 mb 0.00 in0.0 mm 0.00 in0.0 mm 0.00 in0.0 mm
12:45 PM 84.3°F29.1°C 38.9°F3.8°C 20% 5.0 mph NNW8.0 kmh NNW 12.0 mph19.3 kmh 29.93 in1013.5 mb 0.00 in0.0 mm 0.00 in0.0 mm 0.00 in0.0 mm
12:50 PM 84.9°F29.4°C 38.1°F3.4°C 19% 3.0 mph WSW4.8 kmh WSW 9.0 mph14.5 kmh 29.93 in1013.5 mb 0.00 in0.0 mm 0.00 in0.0 mm 0.00 in0.0 mm
12:55 PM 85.0°F29.4°C 39.5°F4.2°C 20% 7.0 mph NW11.3 kmh NW 10.0 mph16.1 kmh 29.93 in1013.5 mb 0.00 in0.0 mm 0.00 in0.0 mm 0.00 in0.0 mm
01:00 PM 85.5°F29.7°C 38.6°F3.7°C 19% 3.0 mph NW4.8 kmh NW 12.0 mph19.3 kmh 29.93 in1013.5 mb 0.00 in0.0 mm 0.00 in0.0 mm 0.00 in0.0 mm
01:05 PM 85.9°F29.9°C 37.5°F3.1°C 18% 7.0 mph NW11.3 kmh NW 11.0 mph17.7 kmh 29.93 in1013.5 mb 0.00 in0.0 mm 0.00 in0.0 mm 0.00 in0.0 mm
01:10 PM 85.6°F29.8°C 35.8°F2.1°C 17% 5.0 mph WSW8.0 kmh WSW 11.0 mph17.7 kmh 29.93 in1013.5 mb 0.00 in0.0 mm 0.00 in0.0 mm 0.00 in0.0 mm
01:15 PM 84.7°F29.3°C 36.6°F2.6°C 18% 6.0 mph NW9.7 kmh NW 11.0 mph17.7 kmh 29.92 in1013.2 mb 0.00 in0.0 mm 0.00 in0.0 mm 0.00 in0.0 mm
01:20 PM 85.8°F29.9°C 38.8°F3.8°C 19% 9.0 mph W14.5 kmh W 11.0 mph17.7 kmh 29.92 in1013.2 mb 0.00 in0.0 mm 0.00 in0.0 mm 0.00 in0.0 mm
01:25 PM 86.4°F30.2°C 40.6°F4.8°C 20% 11.0 mph NW17.7 kmh NW 11.0 mph17.7 kmh 29.92 in1013.2 mb 0.00 in0.0 mm 0.00 in0.0 mm 0.00 in0.0 mm
01:30 PM 86.8°F30.4°C 36.8°F2.7°C 17% 3.0 mph NNW4.8 kmh NNW 11.0 mph17.7 kmh 29.92 in1013.2 mb 0.00 in0.0 mm 0.00 in0.0 mm 0.00 in0.0 mm
01:35 PM 85.0°F29.4°C 39.5°F4.2°C 20% 4.0 mph N6.4 kmh N 8.0 mph12.9 kmh 29.92 in1013.2 mb 0.00 in0.0 mm 0.00 in0.0 mm 0.00 in0.0 mm
01:40 PM 86.8°F30.4°C 41.0°F5.0°C 20% 3.0 mph NNW4.8 kmh NNW 12.0 mph19.3 kmh 29.92 in1013.2 mb 0.00 in0.0 mm 0.00 in0.0 mm 0.00 in0.0 mm
01:45 PM 87.8°F31.0°C 40.5°F4.7°C 19% 2.0 mph NNE3.2 kmh NNE 12.0 mph19.3 kmh 29.92 in1013.2 mb 0.00 in0.0 mm 0.00 in0.0 mm 0.00 in0.0 mm
01:50 PM 88.0°F31.1°C 40.6°F4.8°C 19% 5.0 mph WNW8.0 kmh WNW 9.0 mph14.5 kmh 29.91 in1012.9 mb 0.00 in0.0 mm 0.00 in0.0 mm 0.00 in0.0 mm
01:55 PM 87.5°F30.8°C 38.8°F3.8°C 18% 6.0 mph WNW9.7 kmh WNW 9.0 mph14.5 kmh 29.91 in1012.9 mb 0.00 in0.0 mm 0.00 in0.0 mm 0.00 in0.0 mm
02:00 PM 86.6°F30.3°C 39.5°F4.2°C 19% 6.0 mph W9.7 kmh W 10.0 mph16.1 kmh 29.91 in1012.9 mb 0.00 in0.0 mm 0.00 in0.0 mm 0.00 in0.0 mm
02:05 PM 87.3°F30.7°C 40.1°F4.5°C 19% 4.0 mph WNW6.4 kmh WNW 8.0 mph12.9 kmh 29.91 in1012.9 mb 0.00 in0.0 mm 0.00 in0.0 mm 0.00 in0.0 mm
02:10 PM 86.8°F30.4°C 38.3°F3.5°C 18% 4.0 mph NW6.4 kmh NW 9.0 mph14.5 kmh 29.91 in1012.9 mb 0.00 in0.0 mm 0.00 in0.0 mm 0.00 in0.0 mm
02:15 PM 87.0°F30.6°C 38.4°F3.6°C 18% 2.0 mph WSW3.2 kmh WSW 9.0 mph14.5 kmh 29.91 in1012.9 mb 0.00 in0.0 mm 0.00 in0.0 mm 0.00 in0.0 mm
02:20 PM 87.5°F30.8°C 40.2°F4.6°C 19% 2.0 mph NE3.2 kmh NE 13.0 mph20.9 kmh 29.91 in1012.9 mb 0.00 in0.0 mm 0.00 in0.0 mm 0.00 in0.0 mm
02:25 PM 88.6°F31.4°C 38.3°F3.5°C 17% 9.0 mph N14.5 kmh N 13.0 mph20.9 kmh 29.91 in1012.9 mb 0.00 in0.0 mm 0.00 in0.0 mm 0.00 in0.0 mm
02:30 PM 88.4°F31.3°C 40.9°F4.9°C 19% 2.0 mph NE3.2 kmh NE 13.0 mph20.9 kmh 29.91 in1012.9 mb 0.00 in0.0 mm 0.00 in0.0 mm 0.00 in0.0 mm
02:35 PM 88.2°F31.2°C 37.9°F3.3°C 17% 2.0 mph NE3.2 kmh NE 10.0 mph16.1 kmh 29.91 in1012.9 mb 0.00 in0.0 mm 0.00 in0.0 mm 0.00 in0.0 mm
02:40 PM 87.0°F30.6°C 37.0°F2.8°C 17% 1.0 mph W1.6 kmh W 10.0 mph16.1 kmh 29.91 in1012.9 mb 0.00 in0.0 mm 0.00 in0.0 mm 0.00 in0.0 mm
02:45 PM 88.4°F31.3°C 39.6°F4.2°C 18% 3.0 mph NNE4.8 kmh NNE 10.0 mph16.1 kmh 29.91 in1012.9 mb 0.00 in0.0 mm 0.00 in0.0 mm 0.00 in0.0 mm
02:50 PM 88.8°F31.6°C 38.4°F3.6°C 17% 3.0 mph N4.8 kmh N 5.0 mph8.0 kmh 29.90 in1012.5 mb 0.00 in0.0 mm 0.00 in0.0 mm 0.00 in0.0 mm
02:55 PM 89.1°F31.7°C 38.7°F3.7°C 17% 2.0 mph N3.2 kmh N 6.0 mph9.7 kmh 29.90 in1012.5 mb 0.00 in0.0 mm 0.00 in0.0 mm 0.00 in0.0 mm
03:00 PM 88.4°F31.3°C 39.6°F4.2°C 18% 6.0 mph NW9.7 kmh NW 7.0 mph11.3 kmh 29.90 in1012.5 mb 0.00 in0.0 mm 0.00 in0.0 mm 0.00 in0.0 mm
03:05 PM 88.6°F31.4°C 38.3°F3.5°C 17% 1.0 mph N1.6 kmh N 10.0 mph16.1 kmh 29.90 in1012.5 mb 0.00 in0.0 mm 0.00 in0.0 mm 0.00 in0.0 mm
03:10 PM 88.8°F31.6°C 39.9°F4.4°C 18% 6.0 mph N9.7 kmh N 10.0 mph16.1 kmh 29.90 in1012.5 mb 0.00 in0.0 mm 0.00 in0.0 mm 0.00 in0.0 mm
03:15 PM 87.1°F30.6°C 37.1°F2.8°C 17% 3.0 mph W4.8 kmh W 10.0 mph16.1 kmh 29.90 in1012.5 mb 0.00 in0.0 mm 0.00 in0.0 mm 0.00 in0.0 mm
03:20 PM 86.7°F30.4°C 36.7°F2.6°C 17% 9.0 mph N14.5 kmh N 12.0 mph19.3 kmh 29.90 in1012.5 mb 0.00 in0.0 mm 0.00 in0.0 mm 0.00 in0.0 mm
03:25 PM 87.2°F30.7°C 38.6°F3.7°C 18% 4.0 mph N6.4 kmh N 12.0 mph19.3 kmh 29.90 in1012.5 mb 0.00 in0.0 mm 0.00 in0.0 mm 0.00 in0.0 mm
03:30 PM 87.2°F30.7°C 37.1°F2.8°C 17% 4.0 mph N6.4 kmh N 12.0 mph19.3 kmh 29.89 in1012.2 mb 0.00 in0.0 mm 0.00 in0.0 mm 0.00 in0.0 mm
03:35 PM 87.0°F30.6°C 38.4°F3.6°C 18% 5.0 mph N8.0 kmh N 7.0 mph11.3 kmh 29.89 in1012.2 mb 0.00 in0.0 mm 0.00 in0.0 mm 0.00 in0.0 mm
03:40 PM 87.1°F30.6°C 38.5°F3.6°C 18% 2.0 mph N3.2 kmh N 7.0 mph11.3 kmh 29.89 in1012.2 mb 0.00 in0.0 mm 0.00 in0.0 mm 0.00 in0.0 mm
03:45 PM 87.6°F30.9°C 37.5°F3.1°C 17% 2.0 mph N3.2 kmh N 7.0 mph11.3 kmh 29.89 in1012.2 mb 0.00 in0.0 mm 0.00 in0.0 mm 0.00 in0.0 mm
03:50 PM 88.4°F31.3°C 39.6°F4.2°C 18% 3.0 mph NW4.8 kmh NW 6.0 mph9.7 kmh 29.89 in1012.2 mb 0.00 in0.0 mm 0.00 in0.0 mm 0.00 in0.0 mm
03:55 PM 89.3°F31.8°C 38.8°F3.8°C 17% 7.0 mph N11.3 kmh N 9.0 mph14.5 kmh 29.89 in1012.2 mb 0.00 in0.0 mm 0.00 in0.0 mm 0.00 in0.0 mm
04:00 PM 89.4°F31.9°C 37.4°F3.0°C 16% 4.0 mph N6.4 kmh N 9.0 mph14.5 kmh 29.89 in1012.2 mb 0.00 in0.0 mm 0.00 in0.0 mm 0.00 in0.0 mm
04:05 PM 89.3°F31.8°C 38.8°F3.8°C 17% 3.0 mph NNE4.8 kmh NNE 7.0 mph11.3 kmh 29.88 in1011.9 mb 0.00 in0.0 mm 0.00 in0.0 mm 0.00 in0.0 mm
04:10 PM 89.4°F31.9°C 35.7°F2.1°C 15% 3.0 mph N4.8 kmh N 7.0 mph11.3 kmh 29.88 in1011.9 mb 0.00 in0.0 mm 0.00 in0.0 mm 0.00 in0.0 mm
04:15 PM 89.7°F32.1°C 37.6°F3.1°C 16% 1.0 mph NE1.6 kmh NE 7.0 mph11.3 kmh 29.88 in1011.9 mb 0.00 in0.0 mm 0.00 in0.0 mm 0.00 in0.0 mm
04:20 PM 89.7°F32.1°C 37.6°F3.1°C 16% 3.0 mph NW4.8 kmh NW 7.0 mph11.3 kmh 29.88 in1011.9 mb 0.00 in0.0 mm 0.00 in0.0 mm 0.00 in0.0 mm
04:25 PM 89.2°F31.8°C 37.2°F2.9°C 16% 3.0 mph N4.8 kmh N 7.0 mph11.3 kmh 29.87 in1011.5 mb 0.00 in0.0 mm 0.00 in0.0 mm 0.00 in0.0 mm
04:30 PM 89.5°F31.9°C 37.4°F3.0°C 16% 5.0 mph N8.0 kmh N 9.0 mph14.5 kmh 29.87 in1011.5 mb 0.00 in0.0 mm 0.00 in0.0 mm 0.00 in0.0 mm
04:35 PM 89.4°F31.9°C 35.7°F2.1°C 15% 3.0 mph N4.8 kmh N 10.0 mph16.1 kmh 29.87 in1011.5 mb 0.00 in0.0 mm 0.00 in0.0 mm 0.00 in0.0 mm
04:40 PM 89.5°F31.9°C 35.8°F2.1°C 15% 5.0 mph NNE8.0 kmh NNE 10.0 mph16.1 kmh 29.87 in1011.5 mb 0.00 in0.0 mm 0.00 in0.0 mm 0.00 in0.0 mm
04:45 PM 89.7°F32.1°C 39.1°F3.9°C 17% 6.0 mph N9.7 kmh N 10.0 mph16.1 kmh 29.87 in1011.5 mb 0.00 in0.0 mm 0.00 in0.0 mm 0.00 in0.0 mm
04:50 PM 89.4°F31.9°C 37.4°F3.0°C 16% 3.0 mph N4.8 kmh N 6.0 mph9.7 kmh 29.87 in1011.5 mb 0.00 in0.0 mm 0.00 in0.0 mm 0.00 in0.0 mm
04:55 PM 89.8°F32.1°C 37.7°F3.2°C 16% 2.0 mph N3.2 kmh N 9.0 mph14.5 kmh 29.87 in1011.5 mb 0.00 in0.0 mm 0.00 in0.0 mm 0.00 in0.0 mm
05:05 PM 89.7°F32.1°C 37.6°F3.1°C 16% 4.0 mph NW6.4 kmh NW 9.0 mph14.5 kmh 29.86 in1011.2 mb 0.00 in0.0 mm 0.00 in0.0 mm 0.00 in0.0 mm
05:10 PM 89.7°F32.1°C 39.1°F3.9°C 17% 4.0 mph NE6.4 kmh NE 9.0 mph14.5 kmh 29.86 in1011.2 mb 0.00 in0.0 mm 0.00 in0.0 mm 0.00 in0.0 mm
05:15 PM 89.1°F31.7°C 38.7°F3.7°C 17% 2.0 mph N3.2 kmh N 9.0 mph14.5 kmh 29.86 in1011.2 mb 0.00 in0.0 mm 0.00 in0.0 mm 0.00 in0.0 mm
05:20 PM 89.3°F31.8°C 38.8°F3.8°C 17% 3.0 mph NE4.8 kmh NE 8.0 mph12.9 kmh 29.86 in1011.2 mb 0.00 in0.0 mm 0.00 in0.0 mm 0.00 in0.0 mm
05:25 PM 89.3°F31.8°C 37.3°F2.9°C 16% 1.0 mph E1.6 kmh E 8.0 mph12.9 kmh 29.86 in1011.2 mb 0.00 in0.0 mm 0.00 in0.0 mm 0.00 in0.0 mm
05:30 PM 89.2°F31.8°C 37.2°F2.9°C 16% 5.0 mph NNE8.0 kmh NNE 8.0 mph12.9 kmh 29.86 in1011.2 mb 0.00 in0.0 mm 0.00 in0.0 mm 0.00 in0.0 mm
05:35 PM 89.4°F31.9°C 37.4°F3.0°C 16% 5.0 mph NNE8.0 kmh NNE 7.0 mph11.3 kmh 29.86 in1011.2 mb 0.00 in0.0 mm 0.00 in0.0 mm 0.00 in0.0 mm
05:40 PM 89.1°F31.7°C 38.7°F3.7°C 17% 4.0 mph N6.4 kmh N 10.0 mph16.1 kmh 29.85 in1010.8 mb 0.00 in0.0 mm 0.00 in0.0 mm 0.00 in0.0 mm
05:45 PM 89.0°F31.7°C 40.0°F4.4°C 18% 6.0 mph N9.7 kmh N 10.0 mph16.1 kmh 29.85 in1010.8 mb 0.00 in0.0 mm 0.00 in0.0 mm 0.00 in0.0 mm
05:50 PM 88.8°F31.6°C 38.4°F3.6°C 17% Calm Calm 5.0 mph8.0 kmh 29.85 in1010.8 mb 0.00 in0.0 mm 0.00 in0.0 mm 0.00 in0.0 mm
05:55 PM 89.1°F31.7°C 38.7°F3.7°C 17% 2.0 mph NE3.2 kmh NE 5.0 mph8.0 kmh 29.85 in1010.8 mb 0.00 in0.0 mm 0.00 in0.0 mm 0.00 in0.0 mm
06:00 PM 89.2°F31.8°C 38.7°F3.7°C 17% 2.0 mph NNE3.2 kmh NNE 5.0 mph8.0 kmh 29.85 in1010.8 mb 0.00 in0.0 mm 0.00 in0.0 mm 0.00 in0.0 mm
06:05 PM 89.2°F31.8°C 40.2°F4.6°C 18% 3.0 mph NE4.8 kmh NE 8.0 mph12.9 kmh 29.85 in1010.8 mb 0.00 in0.0 mm 0.00 in0.0 mm 0.00 in0.0 mm
06:10 PM 88.4°F31.3°C 38.1°F3.4°C 17% 3.0 mph NE4.8 kmh NE 8.0 mph12.9 kmh 29.84 in1010.5 mb 0.00 in0.0 mm 0.00 in0.0 mm 0.00 in0.0 mm
06:15 PM 88.5°F31.4°C 38.2°F3.4°C 17% 2.0 mph ENE3.2 kmh ENE 8.0 mph12.9 kmh 29.84 in1010.5 mb 0.00 in0.0 mm 0.00 in0.0 mm 0.00 in0.0 mm
06:20 PM 87.5°F30.8°C 38.8°F3.8°C 18% 1.0 mph NNE1.6 kmh NNE 3.0 mph4.8 kmh 29.84 in1010.5 mb 0.00 in0.0 mm 0.00 in0.0 mm 0.00 in0.0 mm
06:25 PM 87.9°F31.1°C 36.2°F2.3°C 16% 2.0 mph NNE3.2 kmh NNE 5.0 mph8.0 kmh 29.85 in1010.8 mb 0.00 in0.0 mm 0.00 in0.0 mm 0.00 in0.0 mm
06:30 PM 88.1°F31.2°C 37.9°F3.3°C 17% Calm Calm 5.0 mph8.0 kmh 29.84 in1010.5 mb 0.00 in0.0 mm 0.00 in0.0 mm 0.00 in0.0 mm
06:35 PM 88.1°F31.2°C 36.3°F2.4°C 16% 1.0 mph N1.6 kmh N 4.0 mph6.4 kmh 29.84 in1010.5 mb 0.00 in0.0 mm 0.00 in0.0 mm 0.00 in0.0 mm
06:40 PM 87.5°F30.8°C 35.8°F2.1°C 16% 1.0 mph NE1.6 kmh NE 7.0 mph11.3 kmh 29.84 in1010.5 mb 0.00 in0.0 mm 0.00 in0.0 mm 0.00 in0.0 mm
06:45 PM 87.4°F30.8°C 35.8°F2.1°C 16% Calm Calm 7.0 mph11.3 kmh 29.84 in1010.5 mb 0.00 in0.0 mm 0.00 in0.0 mm 0.00 in0.0 mm
06:50 PM 87.2°F30.7°C 37.1°F2.8°C 17% 1.0 mph NE1.6 kmh NE 3.0 mph4.8 kmh 29.84 in1010.5 mb 0.00 in0.0 mm 0.00 in0.0 mm 0.00 in0.0 mm
06:55 PM 87.2°F30.7°C 37.1°F2.8°C 17% Calm Calm 3.0 mph4.8 kmh 29.84 in1010.5 mb 0.00 in0.0 mm 0.00 in0.0 mm 0.00 in0.0 mm
07:00 PM 86.7°F30.4°C 39.6°F4.2°C 19% 1.0 mph NE1.6 kmh NE 3.0 mph4.8 kmh 29.84 in1010.5 mb 0.00 in0.0 mm 0.00 in0.0 mm 0.00 in0.0 mm
07:05 PM 85.5°F29.7°C 38.6°F3.7°C 19% Calm Calm 2.0 mph3.2 kmh 29.84 in1010.5 mb 0.00 in0.0 mm 0.00 in0.0 mm 0.00 in0.0 mm
07:10 PM 84.4°F29.1°C 40.2°F4.6°C 21% Calm Calm 2.0 mph3.2 kmh 29.84 in1010.5 mb 0.00 in0.0 mm 0.00 in0.0 mm 0.00 in0.0 mm
07:15 PM 83.0°F28.3°C 40.3°F4.6°C 22% Calm Calm 2.0 mph3.2 kmh 29.84 in1010.5 mb 0.00 in0.0 mm 0.00 in0.0 mm 0.00 in0.0 mm
07:20 PM 81.9°F27.7°C 40.5°F4.7°C 23% Calm Calm -- 29.84 in1010.5 mb 0.00 in0.0 mm 0.00 in0.0 mm 0.00 in0.0 mm
07:25 PM 81.1°F27.3°C 43.0°F6.1°C 26% Calm Calm -- 29.84 in1010.5 mb 0.00 in0.0 mm 0.00 in0.0 mm 0.00 in0.0 mm
07:30 PM 80.9°F27.2°C 43.8°F6.6°C 27% Calm Calm -- 29.84 in1010.5 mb 0.00 in0.0 mm 0.00 in0.0 mm 0.00 in0.0 mm
07:35 PM 80.3°F26.8°C 43.3°F6.3°C 27% Calm Calm -- 29.84 in1010.5 mb 0.00 in0.0 mm 0.00 in0.0 mm 0.00 in0.0 mm
07:40 PM 79.5°F26.4°C 43.6°F6.4°C 28% Calm Calm -- 29.84 in1010.5 mb 0.00 in0.0 mm 0.00 in0.0 mm 0.00 in0.0 mm
07:45 PM 79.1°F26.2°C 43.2°F6.2°C 28% Calm Calm -- 29.84 in1010.5 mb 0.00 in0.0 mm 0.00 in0.0 mm 0.00 in0.0 mm
07:50 PM 79.3°F26.3°C 44.3°F6.8°C 29% Calm Calm -- 29.84 in1010.5 mb 0.00 in0.0 mm 0.00 in0.0 mm 0.00 in0.0 mm
07:55 PM 77.9°F25.5°C 44.9°F7.2°C 31% Calm Calm -- 29.84 in1010.5 mb 0.00 in0.0 mm 0.00 in0.0 mm 0.00 in0.0 mm
08:00 PM 76.7°F24.8°C 45.5°F7.5°C 33% Calm Calm -- 29.84 in1010.5 mb 0.00 in0.0 mm 0.00 in0.0 mm 0.00 in0.0 mm
08:05 PM 76.5°F24.7°C 44.5°F6.9°C 32% Calm Calm -- 29.84 in1010.5 mb 0.00 in0.0 mm 0.00 in0.0 mm 0.00 in0.0 mm
08:10 PM 76.2°F24.6°C 45.0°F7.2°C 33% Calm Calm -- 29.84 in1010.5 mb 0.00 in0.0 mm 0.00 in0.0 mm 0.00 in0.0 mm
08:15 PM 75.4°F24.1°C 45.9°F7.7°C 35% Calm Calm -- 29.84 in1010.5 mb 0.00 in0.0 mm 0.00 in0.0 mm 0.00 in0.0 mm
08:20 PM 74.1°F23.4°C 44.7°F7.1°C 35% Calm Calm -- 29.84 in1010.5 mb 0.00 in0.0 mm 0.00 in0.0 mm 0.00 in0.0 mm
08:25 PM 73.9°F23.3°C 45.3°F7.4°C 36% Calm Calm -- 29.84 in1010.5 mb 0.00 in0.0 mm 0.00 in0.0 mm 0.00 in0.0 mm
08:30 PM 73.5°F23.1°C 44.2°F6.8°C 35% Calm Calm -- 29.84 in1010.5 mb 0.00 in0.0 mm 0.00 in0.0 mm 0.00 in0.0 mm
08:35 PM 73.1°F22.8°C 43.1°F6.2°C 34% Calm Calm -- 29.84 in1010.5 mb 0.00 in0.0 mm 0.00 in0.0 mm 0.00 in0.0 mm
08:40 PM 73.2°F22.9°C 43.2°F6.2°C 34% Calm Calm -- 29.84 in1010.5 mb 0.00 in0.0 mm 0.00 in0.0 mm 0.00 in0.0 mm
08:45 PM 72.8°F22.7°C 42.8°F6.0°C 34% Calm Calm -- 29.84 in1010.5 mb 0.00 in0.0 mm 0.00 in0.0 mm 0.00 in0.0 mm
08:50 PM 72.3°F22.4°C 44.6°F7.0°C 37% Calm Calm -- 29.84 in1010.5 mb 0.00 in0.0 mm 0.00 in0.0 mm 0.00 in0.0 mm
08:55 PM 71.9°F22.2°C 42.8°F6.0°C 35% Calm Calm -- 29.84 in1010.5 mb 0.00 in0.0 mm 0.00 in0.0 mm 0.00 in0.0 mm
09:00 PM 71.9°F22.2°C 42.8°F6.0°C 35% Calm Calm -- 29.85 in1010.8 mb 0.00 in0.0 mm 0.00 in0.0 mm 0.00 in0.0 mm
09:05 PM 71.9°F22.2°C 41.3°F5.2°C 33% Calm Calm -- 29.85 in1010.8 mb 0.00 in0.0 mm 0.00 in0.0 mm 0.00 in0.0 mm
09:10 PM 71.9°F22.2°C 42.8°F6.0°C 35% Calm Calm -- 29.85 in1010.8 mb 0.00 in0.0 mm 0.00 in0.0 mm 0.00 in0.0 mm
09:15 PM 71.6°F22.0°C 42.5°F5.8°C 35% Calm Calm -- 29.85 in1010.8 mb 0.00 in0.0 mm 0.00 in0.0 mm 0.00 in0.0 mm
09:20 PM 70.7°F21.5°C 45.2°F7.3°C 40% Calm Calm -- 29.85 in1010.8 mb 0.00 in0.0 mm 0.00 in0.0 mm 0.00 in0.0 mm
09:25 PM 69.7°F20.9°C 43.7°F6.5°C 39% Calm Calm -- 29.85 in1010.8 mb 0.00 in0.0 mm 0.00 in0.0 mm 0.00 in0.0 mm
09:30 PM 69.6°F20.9°C 42.9°F6.1°C 38% Calm Calm -- 29.85 in1010.8 mb 0.00 in0.0 mm 0.00 in0.0 mm 0.00 in0.0 mm
09:35 PM 69.6°F20.9°C 43.6°F6.4°C 39% Calm Calm -- 29.86 in1011.2 mb 0.00 in0.0 mm 0.00 in0.0 mm 0.00 in0.0 mm
09:40 PM 69.6°F20.9°C 42.9°F6.1°C 38% Calm Calm -- 29.86 in1011.2 mb 0.00 in0.0 mm 0.00 in0.0 mm 0.00 in0.0 mm
09:45 PM 69.6°F20.9°C 42.9°F6.1°C 38% Calm Calm -- 29.86 in1011.2 mb 0.00 in0.0 mm 0.00 in0.0 mm 0.00 in0.0 mm
09:50 PM 69.5°F20.8°C 43.5°F6.4°C 39% Calm Calm -- 29.86 in1011.2 mb 0.00 in0.0 mm 0.00 in0.0 mm 0.00 in0.0 mm
09:55 PM 70.2°F21.2°C 42.7°F5.9°C 37% 1.0 mph NW1.6 kmh NW 6.0 mph9.7 kmh 29.86 in1011.2 mb 0.00 in0.0 mm 0.00 in0.0 mm 0.00 in0.0 mm
10:00 PM 71.7°F22.1°C 42.6°F5.9°C 35% 3.0 mph W4.8 kmh W 6.0 mph9.7 kmh 29.86 in1011.2 mb 0.00 in0.0 mm 0.00 in0.0 mm 0.00 in0.0 mm
10:05 PM 71.7°F22.1°C 42.6°F5.9°C 35% 2.0 mph W3.2 kmh W 3.0 mph4.8 kmh 29.87 in1011.5 mb 0.00 in0.0 mm 0.00 in0.0 mm 0.00 in0.0 mm
10:10 PM 73.2°F22.9°C 42.4°F5.8°C 33% 2.0 mph WNW3.2 kmh WNW 4.0 mph6.4 kmh 29.87 in1011.5 mb 0.00 in0.0 mm 0.00 in0.0 mm 0.00 in0.0 mm
10:15 PM 74.0°F23.3°C 41.5°F5.3°C 31% 5.0 mph NW8.0 kmh NW 7.0 mph11.3 kmh 29.86 in1011.2 mb 0.00 in0.0 mm 0.00 in0.0 mm 0.00 in0.0 mm
10:20 PM 74.1°F23.4°C 41.6°F5.3°C 31% 4.0 mph NW6.4 kmh NW 6.0 mph9.7 kmh 29.86 in1011.2 mb 0.00 in0.0 mm 0.00 in0.0 mm 0.00 in0.0 mm
10:25 PM 74.0°F23.3°C 40.6°F4.8°C 30% 2.0 mph NW3.2 kmh NW 6.0 mph9.7 kmh 29.87 in1011.5 mb 0.00 in0.0 mm 0.00 in0.0 mm 0.00 in0.0 mm
10:30 PM 73.7°F23.2°C 41.2°F5.1°C 31% 1.0 mph NW1.6 kmh NW 6.0 mph9.7 kmh 29.87 in1011.5 mb 0.00 in0.0 mm 0.00 in0.0 mm 0.00 in0.0 mm
10:35 PM 73.4°F23.0°C 41.0°F5.0°C 31% 1.0 mph WNW1.6 kmh WNW 4.0 mph6.4 kmh 29.87 in1011.5 mb 0.00 in0.0 mm 0.00 in0.0 mm 0.00 in0.0 mm
10:40 PM 72.9°F22.7°C 41.3°F5.2°C 32% 1.0 mph NW1.6 kmh NW 5.0 mph8.0 kmh 29.87 in1011.5 mb 0.00 in0.0 mm 0.00 in0.0 mm 0.00 in0.0 mm
10:45 PM 72.4°F22.4°C 41.7°F5.4°C 33% Calm Calm 5.0 mph8.0 kmh 29.87 in1011.5 mb 0.00 in0.0 mm 0.00 in0.0 mm 0.00 in0.0 mm
10:50 PM 71.8°F22.1°C 42.0°F5.6°C 34% 1.0 mph NW1.6 kmh NW 5.0 mph8.0 kmh 29.87 in1011.5 mb 0.00 in0.0 mm 0.00 in0.0 mm 0.00 in0.0 mm
10:55 PM 71.6°F22.0°C 41.8°F5.4°C 34% 1.0 mph NW1.6 kmh NW 5.0 mph8.0 kmh 29.87 in1011.5 mb 0.00 in0.0 mm 0.00 in0.0 mm 0.00 in0.0 mm
11:00 PM 71.3°F21.8°C 41.5°F5.3°C 34% 1.0 mph NW1.6 kmh NW 5.0 mph8.0 kmh 29.87 in1011.5 mb 0.00 in0.0 mm 0.00 in0.0 mm 0.00 in0.0 mm
11:05 PM 70.9°F21.6°C 41.9°F5.5°C 35% 1.0 mph NW1.6 kmh NW 1.0 mph1.6 kmh 29.87 in1011.5 mb 0.00 in0.0 mm 0.00 in0.0 mm 0.00 in0.0 mm
11:10 PM 70.8°F21.6°C 41.8°F5.4°C 35% 1.0 mph NW1.6 kmh NW 3.0 mph4.8 kmh 29.87 in1011.5 mb 0.00 in0.0 mm 0.00 in0.0 mm 0.00 in0.0 mm
11:15 PM 70.8°F21.6°C 41.1°F5.1°C 34% 2.0 mph NW3.2 kmh NW 3.0 mph4.8 kmh 29.88 in1011.9 mb 0.00 in0.0 mm 0.00 in0.0 mm 0.00 in0.0 mm
11:20 PM 70.7°F21.5°C 41.0°F5.0°C 34% 3.0 mph NW4.8 kmh NW 3.0 mph4.8 kmh 29.88 in1011.9 mb 0.00 in0.0 mm 0.00 in0.0 mm 0.00 in0.0 mm
11:25 PM 70.7°F21.5°C 41.0°F5.0°C 34% Calm Calm 3.0 mph4.8 kmh 29.88 in1011.9 mb 0.00 in0.0 mm 0.00 in0.0 mm 0.00 in0.0 mm
11:30 PM 70.5°F21.4°C 40.8°F4.9°C 34% Calm Calm 3.0 mph4.8 kmh 29.88 in1011.9 mb 0.00 in0.0 mm 0.00 in0.0 mm 0.00 in0.0 mm
11:35 PM 70.1°F21.2°C 41.2°F5.1°C 35% Calm Calm -- 29.88 in1011.9 mb 0.00 in0.0 mm 0.00 in0.0 mm 0.00 in0.0 mm
11:40 PM 70.0°F21.1°C 41.1°F5.1°C 35% 1.0 mph NW1.6 kmh NW 4.0 mph6.4 kmh 29.88 in1011.9 mb 0.00 in0.0 mm 0.00 in0.0 mm 0.00 in0.0 mm
11:45 PM 70.0°F21.1°C 41.1°F5.1°C 35% 1.0 mph WNW1.6 kmh WNW 4.0 mph6.4 kmh 29.88 in1011.9 mb 0.00 in0.0 mm 0.00 in0.0 mm 0.00 in0.0 mm
11:50 PM 69.9°F21.1°C 41.8°F5.4°C 36% 1.0 mph WNW1.6 kmh WNW 3.0 mph4.8 kmh 29.88 in1011.9 mb 0.00 in0.0 mm 0.00 in0.0 mm 0.00 in0.0 mm
11:55 PM 68.3°F20.2°C 41.7°F5.4°C 38% 2.0 mph WNW3.2 kmh WNW 3.0 mph4.8 kmh 29.89 in1012.2 mb 0.00 in0.0 mm 0.00 in0.0 mm 0.00 in0.0 mm